Comfort, North Carolina
Current Conditions -  °F | °C
As of 6:15 PM on Sunday 21 Dec 2014 (Local Time) from KOAJ Reporting Station
Overcast Overcast  
Wind Chill:   Ceiling: 4000
Heat Index:   Visibility: 10mi
Dew Point:   Wind: 9mph
Humidity: 66%   Direction: 10°N
Pressure: 30.24"   Gusts: NA
Location:  35.01°N, 77.49°W
Report Text: KOAJ 212315Z AUTO 01008KT 10SM BKN040 OVC050 07/01 A3024 RMK AO1
Loading
Personal Weather Stations






























Interactive Weather Map New forecast layout! Learn more

10-Day Weather Forecast

Advertisements
Track Severe Weather on mobile